Time;durP1;ratioP1;P1;durP2;ratioP2;P2;SDS_P1;SDS_P2;PMS_P1;PMS_P2;Temp;Humidity;BMP_temperature;BMP_pressure;BME280_temperature;BME280_humidity;BME280_pressure;Samples;Min_cycle;Max_cycle;Signal;HPM_P1;HPM_P2
2022/06/21 00:00:11;;;;;;;0.50;0.40;;;12.20;99.90;;;;;;5052863;28;20298;-78
2022/06/21 00:02:40;;;;;;;0.50;0.40;;;12.10;99.90;;;;;;5052203;28;20874;-78
2022/06/21 00:05:12;;;;;;;0.50;0.40;;;12.10;99.90;;;;;;5052324;28;20194;-78
2022/06/21 00:07:38;;;;;;;0.50;0.40;;;12.00;99.90;;;;;;5052921;28;20285;-78
2022/06/21 00:10:07;;;;;;;0.50;0.40;;;12.00;99.90;;;;;;5053295;28;20737;-79
2022/06/21 00:12:34;;;;;;;0.50;0.40;;;12.00;99.90;;;;;;5052074;28;20300;-80
2022/06/21 00:15:01;;;;;;;0.50;0.40;;;12.00;99.90;;;;;;5053332;28;20863;-80
2022/06/21 00:17:29;;;;;;;0.50;0.40;;;11.90;99.90;;;;;;5053496;28;20288;-79
2022/06/21 00:19:57;;;;;;;0.50;0.40;;;11.90;99.90;;;;;;5053645;28;20234;-79
2022/06/21 00:22:24;;;;;;;0.50;0.40;;;11.90;99.90;;;;;;5053688;28;20209;-80
2022/06/21 00:24:51;;;;;;;0.50;0.40;;;11.80;99.90;;;;;;5054141;28;20321;-80
2022/06/21 00:27:20;;;;;;;0.50;0.40;;;11.80;99.90;;;;;;5054230;28;20193;-80
2022/06/21 00:29:47;;;;;;;0.50;0.40;;;11.80;99.90;;;;;;5053579;28;20289;-79
2022/06/21 00:32:16;;;;;;;0.50;0.40;;;11.70;99.90;;;;;;5054243;28;20209;-79
2022/06/21 00:34:45;;;;;;;0.50;0.40;;;11.70;99.90;;;;;;5054510;28;20202;-80
2022/06/21 00:37:17;;;;;;;0.50;0.40;;;11.60;99.90;;;;;;5053805;28;20285;-79
2022/06/21 00:39:44;;;;;;;0.50;0.40;;;11.60;99.90;;;;;;5053634;28;20267;-79
2022/06/21 00:42:19;;;;;;;0.50;0.40;;;11.60;99.90;;;;;;5118313;22;20304;-82
2022/06/21 00:44:52;;;;;;;0.50;0.40;;;11.60;99.90;;;;;;5072286;28;20275;-81
2022/06/21 00:47:24;;;;;;;0.50;0.40;;;11.50;99.90;;;;;;5080298;28;20211;-82
2022/06/21 00:49:54;;;;;;;0.50;0.40;;;11.50;99.90;;;;;;5079908;28;20287;-79
2022/06/21 00:52:35;;;;;;;0.50;0.40;;;11.60;99.90;;;;;;5079638;28;20252;-81
2022/06/21 00:55:05;;;;;;;0.50;0.40;;;11.50;99.90;;;;;;5080511;28;20205;-82
2022/06/21 00:57:49;;;;;;;0.50;0.40;;;11.50;99.90;;;;;;5078910;28;20208;-81
2022/06/21 01:00:33;;;;;;;0.50;0.40;;;11.50;99.90;;;;;;5080250;28;20180;-81
2022/06/21 01:03:03;;;;;;;0.50;0.40;;;11.40;99.90;;;;;;5080378;28;20246;-82
2022/06/21 01:05:34;;;;;;;0.50;0.40;;;11.40;99.90;;;;;;5078262;28;20204;-82
2022/06/21 01:08:02;;;;;;;0.50;0.40;;;11.40;99.90;;;;;;5078792;28;20521;-82
2022/06/21 01:10:30;;;;;;;0.50;0.40;;;11.40;99.90;;;;;;5080617;28;20282;-81
2022/06/21 01:13:00;;;;;;;0.50;0.40;;;11.40;99.90;;;;;;5079781;28;20247;-81
2022/06/21 01:15:31;;;;;;;0.50;0.40;;;11.40;99.90;;;;;;5080201;28;20264;-81
2022/06/21 01:18:01;;;;;;;0.50;0.40;;;11.40;99.90;;;;;;5079458;28;20610;-82
2022/06/21 01:20:33;;;;;;;0.50;0.40;;;11.40;99.90;;;;;;5080191;28;20208;-80
2022/06/21 01:23:10;;;;;;;0.50;0.40;;;11.30;99.90;;;;;;5081114;28;20264;-81
2022/06/21 01:25:46;;;;;;;0.50;0.40;;;11.30;99.90;;;;;;5085117;28;20192;-81
2022/06/21 01:28:15;;;;;;;0.50;0.40;;;11.30;99.90;;;;;;5085102;28;20188;-81
2022/06/21 01:30:44;;;;;;;0.50;0.40;;;11.30;99.90;;;;;;5082614;28;20228;-81
2022/06/21 01:33:13;;;;;;;0.50;0.50;;;11.30;99.90;;;;;;5079801;28;20253;-81
2022/06/21 01:35:45;;;;;;;0.50;0.40;;;11.30;99.90;;;;;;5079879;28;20279;-81
2022/06/21 01:38:19;;;;;;;0.50;0.40;;;11.30;99.90;;;;;;5080169;28;20634;-82
2022/06/21 01:40:49;;;;;;;0.50;0.40;;;11.30;99.90;;;;;;5079580;28;20222;-82
2022/06/21 01:43:22;;;;;;;0.50;0.40;;;11.30;99.90;;;;;;5079970;28;20285;-82
2022/06/21 01:45:55;;;;;;;0.50;0.40;;;11.30;99.90;;;;;;5080115;28;20323;-81
2022/06/21 01:48:25;;;;;;;0.50;0.40;;;11.30;99.90;;;;;;5079411;28;20213;-81
2022/06/21 01:50:55;;;;;;;0.50;0.40;;;11.20;99.90;;;;;;5079537;28;20244;-82
2022/06/21 01:53:24;;;;;;;0.50;0.40;;;11.20;99.90;;;;;;5085228;28;20274;-80
2022/06/21 01:55:55;;;;;;;0.50;0.40;;;11.20;99.90;;;;;;5092697;28;20185;-80
2022/06/21 01:58:27;;;;;;;0.50;0.40;;;11.10;99.90;;;;;;5095768;28;20269;-80
2022/06/21 02:00:58;;;;;;;0.50;0.40;;;11.10;99.90;;;;;;5096070;28;20216;-80
2022/06/21 02:03:30;;;;;;;0.50;0.40;;;11.00;99.90;;;;;;5094996;28;20211;-79
2022/06/21 02:06:01;;;;;;;0.50;0.40;;;11.10;99.90;;;;;;5095917;28;20199;-80
2022/06/21 02:08:35;;;;;;;0.50;0.40;;;11.10;99.90;;;;;;5096038;28;20185;-80
2022/06/21 02:11:07;;;;;;;0.50;0.40;;;11.10;99.90;;;;;;5096086;28;20219;-80
2022/06/21 02:13:40;;;;;;;0.50;0.40;;;11.10;99.90;;;;;;5095712;28;20196;-79
2022/06/21 02:16:12;;;;;;;0.50;0.40;;;11.00;99.90;;;;;;5095361;28;20196;-80
2022/06/21 02:18:43;;;;;;;0.50;0.40;;;11.10;99.90;;;;;;5095555;28;20161;-80
2022/06/21 02:21:16;;;;;;;0.70;0.70;;;11.00;99.90;;;;;;5095501;28;20227;-80
2022/06/21 02:23:43;;;;;;;0.50;0.40;;;11.00;99.90;;;;;;5095334;28;20270;-81
2022/06/21 02:26:12;;;;;;;0.50;0.40;;;11.00;99.90;;;;;;5095047;28;20168;-79
2022/06/21 02:28:41;;;;;;;0.50;0.40;;;10.90;99.90;;;;;;5094164;28;20205;-80
2022/06/21 02:31:10;;;;;;;0.50;0.40;;;10.90;99.90;;;;;;5082033;28;20213;-82
2022/06/21 02:33:38;;;;;;;0.50;0.40;;;10.90;99.90;;;;;;5081315;28;20236;-81
2022/06/21 02:36:11;;;;;;;0.50;0.40;;;10.90;99.90;;;;;;5082216;28;20311;-81
2022/06/21 02:38:42;;;;;;;0.50;0.40;;;10.80;99.90;;;;;;5081060;28;20267;-81
2022/06/21 02:41:13;;;;;;;0.50;0.40;;;10.80;99.90;;;;;;5081079;28;20315;-80
2022/06/21 02:43:44;;;;;;;0.50;0.40;;;10.90;99.90;;;;;;5082358;28;20187;-80
2022/06/21 02:46:15;;;;;;;0.50;0.40;;;10.90;99.90;;;;;;5081745;28;20258;-81
2022/06/21 02:48:48;;;;;;;0.50;0.40;;;10.90;99.90;;;;;;5081769;28;20220;-80
2022/06/21 02:51:22;;;;;;;0.50;0.40;;;10.80;99.90;;;;;;5081590;28;20264;-81
2022/06/21 02:53:55;;;;;;;0.50;0.40;;;10.90;99.90;;;;;;5082075;28;20288;-80
2022/06/21 02:56:25;;;;;;;0.50;0.40;;;10.90;99.90;;;;;;5081856;28;20224;-79
2022/06/21 02:58:57;;;;;;;0.50;0.40;;;10.80;99.90;;;;;;5080706;28;20219;-81
2022/06/21 03:01:28;;;;;;;0.50;0.40;;;10.70;99.90;;;;;;5081987;28;20764;-81
2022/06/21 03:03:57;;;;;;;0.50;0.40;;;10.70;99.90;;;;;;5080741;28;20268;-81
2022/06/21 03:06:24;;;;;;;0.50;0.40;;;10.60;99.90;;;;;;5082070;28;20263;-81
2022/06/21 03:08:56;;;;;;;0.50;0.40;;;10.50;99.90;;;;;;5081482;28;20196;-80
2022/06/21 03:11:27;;;;;;;0.50;0.40;;;10.60;99.90;;;;;;5079044;28;20217;-79
2022/06/21 03:13:56;;;;;;;0.50;0.40;;;10.50;99.90;;;;;;5076428;28;20204;-78
2022/06/21 03:16:24;;;;;;;0.50;0.40;;;10.50;99.90;;;;;;5076596;28;20283;-78
2022/06/21 03:18:54;;;;;;;0.50;0.40;;;10.50;99.90;;;;;;5076329;28;20201;-79
2022/06/21 03:21:26;;;;;;;0.50;0.40;;;10.50;99.90;;;;;;5077048;28;20316;-79
2022/06/21 03:23:54;;;;;;;0.50;0.40;;;10.50;99.90;;;;;;5076385;28;20173;-80
2022/06/21 03:26:21;;;;;;;0.50;0.40;;;10.60;99.90;;;;;;5075919;28;20302;-79
2022/06/21 03:28:48;;;;;;;0.50;0.40;;;10.60;99.90;;;;;;5077118;28;20287;-78
2022/06/21 03:31:20;;;;;;;0.50;0.40;;;10.70;99.90;;;;;;5076932;28;20307;-80
2022/06/21 03:33:49;;;;;;;0.50;0.40;;;10.80;99.90;;;;;;5079341;28;20216;-79
2022/06/21 03:36:20;;;;;;;0.50;0.40;;;10.80;99.90;;;;;;5077333;28;20713;-81
2022/06/21 03:38:48;;;;;;;0.50;0.40;;;10.90;99.90;;;;;;5078027;28;20662;-81
2022/06/21 03:44:08;;;;;;;0.50;0.40;;;11.00;99.90;;;;;;5077194;28;20241;-79
2022/06/21 03:46:42;;;;;;;0.50;0.40;;;11.00;99.90;;;;;;5077569;28;20203;-80
2022/06/21 03:49:18;;;;;;;0.50;0.40;;;11.00;99.90;;;;;;5075765;28;20242;-80
2022/06/21 03:51:48;;;;;;;0.50;0.40;;;11.10;99.90;;;;;;5077536;28;20270;-80
2022/06/21 03:54:21;;;;;;;0.50;0.40;;;11.20;99.90;;;;;;5078396;28;20228;-79
2022/06/21 03:56:53;;;;;;;0.50;0.40;;;11.20;99.90;;;;;;5078026;28;20597;-81
2022/06/21 03:59:29;;;;;;;0.50;0.40;;;11.30;99.90;;;;;;5069666;28;20341;-80
2022/06/21 04:02:03;;;;;;;0.50;0.40;;;11.40;99.90;;;;;;5072568;28;20447;-78
2022/06/21 04:04:34;;;;;;;0.50;0.40;;;11.40;99.90;;;;;;5077266;28;20177;-79
2022/06/21 04:07:06;;;;;;;0.50;0.40;;;11.40;99.90;;;;;;5077240;28;20305;-80
2022/06/21 04:09:42;;;;;;;0.50;0.40;;;11.50;99.90;;;;;;5076913;28;20197;-79
2022/06/21 04:12:15;;;;;;;0.50;0.40;;;11.40;99.90;;;;;;5076855;28;20214;-79
2022/06/21 04:14:48;;;;;;;0.50;0.40;;;11.50;99.90;;;;;;5076470;28;20277;-79
2022/06/21 04:17:21;;;;;;;0.50;0.40;;;11.50;99.90;;;;;;5076998;28;20204;-78
2022/06/21 04:19:53;;;;;;;0.50;0.40;;;11.50;99.90;;;;;;5075610;28;20264;-79
2022/06/21 04:22:28;;;;;;;0.50;0.40;;;11.40;99.90;;;;;;5075164;28;20770;-79
2022/06/21 04:25:00;;;;;;;0.50;0.40;;;11.40;99.90;;;;;;5075964;28;20228;-80
2022/06/21 04:27:32;;;;;;;0.50;0.40;;;11.50;99.90;;;;;;5075171;28;20273;-81
2022/06/21 04:30:04;;;;;;;0.50;0.40;;;11.50;99.90;;;;;;5075311;28;20203;-79
2022/06/21 04:32:37;;;;;;;0.50;0.40;;;11.50;99.90;;;;;;5075711;28;20217;-79
2022/06/21 04:35:06;;;;;;;0.50;0.40;;;11.60;99.90;;;;;;5074851;28;20583;-80
2022/06/21 04:37:40;;;;;;;0.50;0.40;;;11.60;99.90;;;;;;5075705;28;20288;-80
2022/06/21 04:40:15;;;;;;;0.60;0.60;;;11.60;99.90;;;;;;5075423;28;20200;-79
2022/06/21 04:42:55;;;;;;;0.50;0.40;;;11.70;99.90;;;;;;5074633;28;20315;-79
2022/06/21 04:45:33;;;;;;;0.50;0.40;;;11.70;99.90;;;;;;5075146;28;20200;-78
2022/06/21 04:48:15;;;;;;;0.75;0.75;;;11.90;99.90;;;;;;5074938;28;20203;-79
2022/06/21 04:50:45;;;;;;;0.50;0.40;;;12.00;99.90;;;;;;5074270;28;20273;-79
2022/06/21 04:53:20;;;;;;;1.08;1.08;;;12.10;99.90;;;;;;5073707;28;20199;-79
2022/06/21 04:55:57;;;;;;;0.50;0.50;;;12.20;99.90;;;;;;5076303;28;20297;-80
2022/06/21 04:58:25;;;;;;;0.50;0.40;;;12.30;99.90;;;;;;5075019;28;20235;-82
2022/06/21 05:00:52;;;;;;;0.50;0.40;;;12.40;99.90;;;;;;5076201;28;20305;-79
2022/06/21 05:03:29;;;;;;;0.50;0.40;;;12.40;99.90;;;;;;5077115;28;20217;-79
2022/06/21 05:05:56;;;;;;;0.50;0.40;;;12.50;99.90;;;;;;5077476;28;20651;-80
2022/06/21 05:08:25;;;;;;;0.50;0.40;;;12.60;99.90;;;;;;5077089;28;20281;-80
2022/06/21 05:10:55;;;;;;;0.50;0.40;;;12.80;99.90;;;;;;5076478;28;20312;-80
2022/06/21 05:13:27;;;;;;;0.70;0.63;;;12.90;99.90;;;;;;5075990;28;20571;-80
2022/06/21 05:15:55;;;;;;;0.50;0.40;;;12.90;99.90;;;;;;5077306;28;20297;-80
2022/06/21 05:18:28;;;;;;;0.50;0.40;;;12.90;99.90;;;;;;5077560;28;20253;-80
2022/06/21 05:21:01;;;;;;;0.50;0.40;;;13.00;99.90;;;;;;5076555;28;20305;-80
2022/06/21 05:23:29;;;;;;;0.50;0.40;;;13.10;99.90;;;;;;5077448;28;20203;-80
2022/06/21 05:25:59;;;;;;;1.63;1.55;;;13.20;99.90;;;;;;5077455;28;20276;-81
2022/06/21 05:28:31;;;;;;;0.50;0.40;;;13.30;99.90;;;;;;5077062;28;20194;-80
2022/06/21 05:31:03;;;;;;;0.60;0.50;;;13.40;99.90;;;;;;5077460;28;20241;-81
2022/06/21 05:33:36;;;;;;;0.50;0.40;;;13.40;99.90;;;;;;5077070;28;20272;-80
2022/06/21 05:36:07;;;;;;;0.60;0.60;;;13.60;99.90;;;;;;5077385;28;20293;-81
2022/06/21 05:38:35;;;;;;;0.50;0.40;;;13.60;99.90;;;;;;5076958;28;20179;-81
2022/06/21 05:41:10;;;;;;;0.50;0.40;;;13.70;99.90;;;;;;5076066;28;20230;-82
2022/06/21 05:43:42;;;;;;;0.50;0.40;;;13.80;99.90;;;;;;5077561;28;20284;-82
2022/06/21 05:46:14;;;;;;;0.68;0.60;;;13.90;99.90;;;;;;5076428;28;20197;-82
2022/06/21 05:48:43;;;;;;;0.50;0.40;;;14.00;99.90;;;;;;5076452;28;20229;-82
2022/06/21 05:51:17;;;;;;;0.50;0.40;;;14.00;99.90;;;;;;5076313;28;20218;-81
2022/06/21 05:53:48;;;;;;;0.50;0.40;;;14.20;99.90;;;;;;5076321;28;20428;-81
2022/06/21 05:56:21;;;;;;;1.07;0.90;;;14.30;99.90;;;;;;5075538;28;20472;-84
2022/06/21 05:58:54;;;;;;;0.90;0.90;;;14.30;99.90;;;;;;5073391;28;20619;-79
2022/06/21 06:01:25;;;;;;;0.50;0.40;;;14.40;99.90;;;;;;5054941;28;20517;-83
2022/06/21 06:03:59;;;;;;;0.60;0.50;;;14.40;99.90;;;;;;5055639;28;20226;-82
2022/06/21 06:06:29;;;;;;;0.50;0.40;;;14.60;99.90;;;;;;5060003;28;20468;-81
2022/06/21 06:09:01;;;;;;;0.50;0.40;;;14.70;99.90;;;;;;5060454;28;20445;-83
2022/06/21 06:11:57;;;;;;;0.50;0.40;;;14.80;99.90;;;;;;5060745;28;20457;-82
2022/06/21 06:14:21;;;;;;;1.23;1.23;;;15.00;99.90;;;;;;5059990;28;20652;-83
2022/06/21 06:16:50;;;;;;;0.50;0.40;;;15.30;99.90;;;;;;5059611;28;20938;-83
2022/06/21 06:19:26;;;;;;;1.30;1.20;;;15.50;99.90;;;;;;5060521;28;20504;-83
2022/06/21 06:22:10;;;;;;;0.50;0.40;;;15.80;99.90;;;;;;5061469;28;20461;-82
2022/06/21 06:24:43;;;;;;;0.50;0.40;;;16.00;99.90;;;;;;5059998;28;20421;-80
2022/06/21 06:27:24;;;;;;;0.60;0.60;;;16.30;99.90;;;;;;5058062;28;20520;-82
2022/06/21 06:29:52;;;;;;;0.97;0.60;;;16.10;99.90;;;;;;5059240;28;20451;-82
2022/06/21 06:32:25;;;;;;;0.50;0.30;;;16.20;99.90;;;;;;5058574;28;20971;-81
2022/06/21 06:34:54;;;;;;;0.60;0.50;;;16.30;99.90;;;;;;5058778;28;20473;-81
2022/06/21 06:37:30;;;;;;;0.50;0.30;;;16.60;99.90;;;;;;5060084;28;20532;-82
2022/06/21 06:39:57;;;;;;;0.50;0.40;;;17.50;99.90;;;;;;5059963;28;20425;-81
2022/06/21 06:42:27;;;;;;;0.50;0.37;;;19.00;99.90;;;;;;5060337;28;20475;-79
2022/06/21 06:44:58;;;;;;;0.80;0.60;;;20.40;99.90;;;;;;5062178;28;20418;-83
2022/06/21 06:47:35;;;;;;;0.50;0.40;;;21.80;99.90;;;;;;5062766;28;20429;-81
2022/06/21 06:50:08;;;;;;;0.50;0.40;;;22.60;99.90;;;;;;5065818;28;20463;-81
2022/06/21 06:52:40;;;;;;;0.50;0.30;;;23.80;95.00;;;;;;5080648;28;20464;-81
2022/06/21 06:55:13;;;;;;;0.60;0.40;;;24.70;88.00;;;;;;5080832;28;20467;-82
2022/06/21 06:57:45;;;;;;;0.50;0.40;;;24.80;81.30;;;;;;5083400;28;20848;-82
2022/06/21 07:00:15;;;;;;;0.53;0.47;;;23.60;81.00;;;;;;5085778;28;20533;-81
2022/06/21 07:02:47;;;;;;;0.50;0.30;;;23.40;84.60;;;;;;5087344;28;20463;-82
2022/06/21 07:05:23;;;;;;;0.50;0.40;;;23.40;85.20;;;;;;5085939;28;20475;-84
2022/06/21 07:07:53;;;;;;;0.50;0.30;;;24.80;85.40;;;;;;5083739;28;20518;-83
2022/06/21 07:10:25;;;;;;;0.50;0.37;;;25.40;76.50;;;;;;5083812;28;20420;-82
2022/06/21 07:12:54;;;;;;;0.50;0.40;;;25.50;74.50;;;;;;5082222;28;20471;-86
2022/06/21 07:15:27;;;;;;;0.50;0.30;;;26.30;72.40;;;;;;5081164;28;21012;-86
2022/06/21 07:17:57;;;;;;;1.17;1.17;;;26.80;69.40;;;;;;5080895;28;20420;-86
2022/06/21 07:20:29;;;;;;;0.50;0.30;;;27.30;69.00;;;;;;5080523;28;20444;-83
2022/06/21 07:22:56;;;;;;;0.50;0.40;;;27.20;66.40;;;;;;5080217;28;20455;-82
2022/06/21 07:25:30;;;;;;;0.50;0.30;;;27.70;64.60;;;;;;5079233;28;20428;-83
2022/06/21 07:28:03;;;;;;;0.50;0.30;;;28.10;62.50;;;;;;5079492;28;20666;-86
2022/06/21 07:30:39;;;;;;;0.50;0.30;;;28.50;61.40;;;;;;5081070;28;20427;-85
2022/06/21 07:33:12;;;;;;;0.50;0.30;;;29.60;58.80;;;;;;5081440;28;20840;-85
2022/06/21 07:35:45;;;;;;;2.10;1.00;;;30.50;58.10;;;;;;5080050;28;20541;-80
2022/06/21 07:38:18;;;;;;;0.50;0.30;;;31.00;55.20;;;;;;5080901;28;20783;-85
2022/06/21 07:40:48;;;;;;;0.50;0.30;;;31.20;54.80;;;;;;5080659;28;20440;-84
2022/06/21 07:43:20;;;;;;;0.77;0.60;;;31.50;54.80;;;;;;5080703;28;20416;-84
2022/06/21 07:45:51;;;;;;;5.03;0.60;;;32.70;53.50;;;;;;5081416;28;20424;-84
2022/06/21 07:48:23;;;;;;;0.50;0.30;;;33.60;51.70;;;;;;5079710;28;20520;-84
2022/06/21 07:50:53;;;;;;;0.50;0.30;;;33.90;50.40;;;;;;5081686;28;20914;-84
2022/06/21 07:53:25;;;;;;;0.50;0.30;;;33.90;50.20;;;;;;5080611;28;20436;-83
2022/06/21 07:55:57;;;;;;;0.50;0.30;;;34.90;48.80;;;;;;5080489;28;20543;-83
2022/06/21 07:58:32;;;;;;;0.50;0.30;;;34.90;47.60;;;;;;5079470;28;20829;-81
2022/06/21 08:06:45;;;;;;;0.50;0.30;;;34.30;47.90;;;;;;5079470;28;20905;-84
2022/06/21 08:09:23;;;;;;;0.60;0.60;;;34.40;46.60;;;;;;5079550;28;20840;-82
2022/06/21 08:11:53;;;;;;;0.50;0.30;;;33.90;47.50;;;;;;5079332;28;20503;-84
2022/06/21 08:14:21;;;;;;;0.50;0.30;;;34.30;47.10;;;;;;5078527;28;20444;-83
2022/06/21 08:16:54;;;;;;;0.50;0.30;;;34.10;45.50;;;;;;5077777;28;20571;-83
2022/06/21 08:19:28;;;;;;;0.50;0.30;;;33.10;45.70;;;;;;5078740;28;20488;-83
2022/06/21 08:22:03;;;;;;;0.50;0.30;;;32.60;46.30;;;;;;5078571;28;21079;-83
2022/06/21 08:24:37;;;;;;;0.60;0.40;;;32.10;47.70;;;;;;5078353;28;20428;-82
2022/06/21 08:27:15;;;;;;;0.50;0.40;;;31.80;48.60;;;;;;5078479;28;20495;-82
2022/06/21 08:29:48;;;;;;;0.50;0.30;;;31.00;48.30;;;;;;5077153;28;20464;-83
2022/06/21 08:32:23;;;;;;;0.50;0.30;;;30.50;49.30;;;;;;5078823;28;20492;-85
2022/06/21 08:34:54;;;;;;;0.50;0.30;;;30.70;51.50;;;;;;5076927;28;20518;-84
2022/06/21 08:37:30;;;;;;;0.50;0.30;;;30.50;49.80;;;;;;5077539;28;20443;-83
2022/06/21 08:40:10;;;;;;;2.00;0.50;;;30.60;50.80;;;;;;5077896;28;20439;-83
2022/06/21 08:43:06;;;;;;;0.77;0.70;;;30.30;50.10;;;;;;5078285;28;20658;-83
2022/06/21 08:46:00;;;;;;;0.50;0.30;;;30.40;52.70;;;;;;5077730;28;20457;-84
2022/06/21 08:49:09;;;;;;;0.70;0.60;;;31.00;49.80;;;;;;5076808;28;20492;-83
2022/06/21 08:52:04;;;;;;;0.50;0.30;;;31.30;49.30;;;;;;5077546;28;20539;-83
2022/06/21 08:54:43;;;;;;;0.50;0.30;;;31.10;49.10;;;;;;5077755;28;20472;-86
2022/06/21 08:57:18;;;;;;;0.50;0.40;;;31.40;50.00;;;;;;5077572;28;21006;-84
2022/06/21 09:00:01;;;;;;;0.50;0.30;;;32.40;49.20;;;;;;5077634;28;20475;-81
2022/06/21 09:02:40;;;;;;;0.50;0.30;;;33.50;47.50;;;;;;5078470;28;20495;-84
2022/06/21 09:05:24;;;;;;;0.50;0.30;;;33.20;47.30;;;;;;5079092;28;20478;-85
2022/06/21 09:08:18;;;;;;;0.50;0.30;;;33.90;47.80;;;;;;5078676;28;20420;-84
2022/06/21 09:11:02;;;;;;;1.90;0.50;;;33.90;45.50;;;;;;5077612;28;20478;-83
2022/06/21 09:13:43;;;;;;;0.50;0.30;;;33.30;45.50;;;;;;5077746;28;20444;-84
2022/06/21 09:16:17;;;;;;;0.50;0.30;;;33.20;46.10;;;;;;5078435;28;20491;-83
2022/06/21 09:19:00;;;;;;;0.50;0.30;;;33.70;46.00;;;;;;5078578;28;20424;-81
2022/06/21 09:21:32;;;;;;;0.50;0.30;;;34.20;46.60;;;;;;5079325;28;20470;-86
2022/06/21 09:24:03;;;;;;;0.50;0.30;;;34.70;46.30;;;;;;5078062;28;20467;-85
2022/06/21 09:26:40;;;;;;;0.50;0.30;;;35.40;44.30;;;;;;5077933;28;20986;-84
2022/06/21 09:29:22;;;;;;;0.50;0.30;;;34.90;44.00;;;;;;5079087;28;20445;-85
2022/06/21 09:32:01;;;;;;;0.50;0.30;;;35.20;44.80;;;;;;5078156;28;20462;-82
2022/06/21 09:34:33;;;;;;;0.50;0.30;;;35.90;44.40;;;;;;5077747;28;20839;-85
2022/06/21 09:37:08;;;;;;;0.50;0.30;;;36.30;43.30;;;;;;5077431;28;20559;-85
2022/06/21 09:39:41;;;;;;;0.43;0.30;;;36.50;44.30;;;;;;5078448;28;20492;-84
2022/06/21 09:42:18;;;;;;;0.40;0.30;;;35.70;43.60;;;;;;5081950;28;20468;-85
2022/06/21 09:44:52;;;;;;;0.50;0.30;;;35.80;44.70;;;;;;5082559;28;20518;-84
2022/06/21 09:47:35;;;;;;;0.50;0.30;;;35.50;42.60;;;;;;5081828;28;20941;-84
2022/06/21 09:50:12;;;;;;;0.50;0.30;;;34.80;42.80;;;;;;5081715;28;20511;-83
2022/06/21 09:52:50;;;;;;;0.50;0.30;;;33.20;43.90;;;;;;5080909;28;20460;-85
2022/06/21 09:55:25;;;;;;;0.50;0.30;;;32.30;44.10;;;;;;5081731;28;20436;-85
2022/06/21 09:58:02;;;;;;;0.50;0.40;;;31.10;45.70;;;;;;5080719;28;20482;-85
2022/06/21 10:00:39;;;;;;;0.50;0.30;;;30.80;46.80;;;;;;5081386;28;20462;-85
2022/06/21 10:03:18;;;;;;;0.50;0.30;;;30.10;47.10;;;;;;5080768;28;20507;-84
2022/06/21 10:05:53;;;;;;;0.50;0.30;;;29.30;47.60;;;;;;5079148;28;20504;-86
2022/06/21 10:08:31;;;;;;;0.50;0.30;;;28.40;48.30;;;;;;5080032;28;20417;-86
2022/06/21 10:11:06;;;;;;;0.50;0.30;;;28.30;49.30;;;;;;5079541;28;20455;-85
2022/06/21 10:14:04;;;;;;;0.50;0.30;;;28.70;49.40;;;;;;5079871;28;20420;-84
2022/06/21 10:16:58;;;;;;;0.50;0.30;;;28.90;50.10;;;;;;5079920;28;20574;-84
2022/06/21 10:19:37;;;;;;;0.60;0.40;;;29.30;49.50;;;;;;5079099;28;20511;-84
2022/06/21 10:22:35;;;;;;;0.50;0.30;;;28.70;49.40;;;;;;5078945;28;20462;-84
2022/06/21 10:25:16;;;;;;;0.60;0.60;;;28.00;50.60;;;;;;5073135;28;20509;-83
2022/06/21 10:28:02;;;;;;;0.50;0.50;;;28.10;51.00;;;;;;5079413;28;20897;-82
2022/06/21 10:30:47;;;;;;;0.50;0.30;;;29.60;52.20;;;;;;5079888;28;20471;-85
2022/06/21 10:33:35;;;;;;;0.50;0.30;;;31.40;49.30;;;;;;5081363;28;20432;-87
2022/06/21 10:36:15;;;;;;;0.50;0.30;;;33.40;47.10;;;;;;5079950;28;20518;-85
2022/06/21 10:39:07;;;;;;;0.50;0.30;;;34.00;45.30;;;;;;5079649;28;20778;-85
2022/06/21 10:42:46;;;;;;;0.50;0.30;;;34.40;45.50;;;;;;5080466;28;20491;-80
2022/06/21 10:44:47;;;;;;;0.50;0.30;;;33.00;44.70;;;;;;5081611;28;20540;-85
2022/06/21 10:47:25;;;;;;;0.50;0.30;;;31.00;46.70;;;;;;5081515;28;20810;-82
2022/06/21 10:50:12;;;;;;;0.50;0.30;;;30.10;48.20;;;;;;5081248;28;20444;-85
2022/06/21 10:53:05;;;;;;;0.50;0.30;;;29.50;49.10;;;;;;5080556;28;20546;-84
2022/06/21 10:55:47;;;;;;;0.50;0.30;;;30.50;50.90;;;;;;5080315;28;20420;-83
2022/06/21 10:58:32;;;;;;;0.50;0.30;;;31.30;47.80;;;;;;5079843;28;20428;-84
2022/06/21 11:01:21;;;;;;;0.50;0.30;;;32.00;49.10;;;;;;5080378;28;20499;-83
2022/06/21 11:04:15;;;;;;;0.50;0.30;;;32.80;47.00;;;;;;5078513;28;20435;-85
2022/06/21 11:06:49;;;;;;;0.50;0.30;;;33.20;45.40;;;;;;5079109;28;20519;-81
2022/06/21 11:09:24;;;;;;;0.50;0.30;;;33.00;45.40;;;;;;5078356;28;20424;-84
2022/06/21 11:11:56;;;;;;;0.50;0.30;;;32.50;45.90;;;;;;5078094;28;20482;-84
2022/06/21 11:14:37;;;;;;;0.50;0.30;;;32.30;46.90;;;;;;5077912;28;20464;-85
2022/06/21 11:17:12;;;;;;;0.50;0.30;;;33.20;46.10;;;;;;5078966;28;20475;-84
2022/06/21 11:19:51;;;;;;;0.50;0.30;;;33.50;45.40;;;;;;5077859;28;20774;-84
2022/06/21 11:22:29;;;;;;;0.80;0.40;;;33.60;44.20;;;;;;5078049;28;20535;-85
2022/06/21 11:25:06;;;;;;;0.60;0.50;;;32.00;43.10;;;;;;5078775;28;20435;-83
2022/06/21 11:27:40;;;;;;;0.50;0.30;;;31.00;45.60;;;;;;5079277;28;20614;-86
2022/06/21 11:30:13;;;;;;;0.50;0.30;;;31.00;46.80;;;;;;5078527;28;20463;-84
2022/06/21 11:32:49;;;;;;;0.50;0.30;;;30.80;46.90;;;;;;5078083;28;20471;-84
2022/06/21 11:35:30;;;;;;;0.50;0.30;;;30.30;47.30;;;;;;5078038;28;20784;-83
2022/06/21 11:38:08;;;;;;;0.50;0.30;;;29.70;46.40;;;;;;5077194;28;20460;-83
2022/06/21 11:40:49;;;;;;;0.50;0.30;;;28.80;46.80;;;;;;5077541;28;20455;-82
2022/06/21 11:43:35;;;;;;;0.50;0.40;;;27.80;48.40;;;;;;5080475;28;20452;-85
2022/06/21 11:46:12;;;;;;;0.50;0.30;;;27.40;50.10;;;;;;5079533;28;20452;-87
2022/06/21 11:49:13;;;;;;;0.50;0.30;;;26.80;50.00;;;;;;5081600;28;20562;-83
2022/06/21 11:52:03;;;;;;;0.50;0.30;;;27.00;51.50;;;;;;5077292;28;20468;-86
2022/06/21 11:54:35;;;;;;;0.50;0.30;;;27.00;52.70;;;;;;5076953;28;20463;-84
2022/06/21 11:57:17;;;;;;;0.50;0.30;;;26.90;51.60;;;;;;5079416;28;20529;-83
2022/06/21 11:59:56;;;;;;;0.50;0.30;;;26.60;51.30;;;;;;5082405;28;20514;-85
2022/06/21 12:02:30;;;;;;;0.50;0.30;;;26.10;52.00;;;;;;5081753;28;20494;-84
2022/06/21 12:05:04;;;;;;;0.50;0.30;;;25.80;52.90;;;;;;5082357;28;20467;-85
2022/06/21 12:07:41;;;;;;;0.50;0.30;;;25.70;53.60;;;;;;5070535;28;20635;-83
2022/06/21 12:10:15;;;;;;;0.50;0.30;;;25.60;54.00;;;;;;5071563;28;20795;-85
2022/06/21 12:12:54;;;;;;;0.50;0.30;;;25.60;53.80;;;;;;5077324;28;20999;-85
2022/06/21 12:15:45;;;;;;;0.50;0.47;;;25.70;54.50;;;;;;5077510;28;20516;-85
2022/06/21 12:18:15;;;;;;;0.50;0.30;;;25.80;54.50;;;;;;5082378;28;20479;-84
2022/06/21 12:20:47;;;;;;;0.50;0.30;;;25.70;55.50;;;;;;5081268;28;20524;-85
2022/06/21 12:23:21;;;;;;;0.50;0.30;;;25.70;55.20;;;;;;5079646;28;20930;-82
2022/06/21 12:25:48;;;;;;;0.50;0.30;;;25.70;54.20;;;;;;5077592;28;20429;-84
2022/06/21 12:28:18;;;;;;;0.50;0.30;;;25.80;55.50;;;;;;5077944;28;20444;-84
2022/06/21 12:30:45;;;;;;;0.50;0.30;;;26.00;56.10;;;;;;5077630;28;21004;-86
2022/06/21 12:33:16;;;;;;;0.50;0.30;;;26.10;55.20;;;;;;5079238;28;20440;-83
2022/06/21 12:35:50;;;;;;;2.20;0.87;;;26.10;54.20;;;;;;5078472;28;20432;-79
2022/06/21 12:38:24;;;;;;;0.50;0.30;;;26.50;54.80;;;;;;5079130;28;20546;-83
2022/06/21 12:41:01;;;;;;;0.50;0.30;;;27.30;52.90;;;;;;5077527;28;20416;-82
2022/06/21 12:43:46;;;;;;;0.50;0.30;;;29.10;52.80;;;;;;5076646;28;20471;-83
2022/06/21 12:46:21;;;;;;;0.50;0.30;;;31.30;50.70;;;;;;5077104;28;20435;-83
2022/06/21 12:49:01;;;;;;;0.50;0.30;;;32.60;47.60;;;;;;5079124;28;20865;-82
2022/06/21 12:51:36;;;;;;;0.50;0.30;;;33.40;44.40;;;;;;5078671;28;20458;-83
2022/06/21 12:54:26;;;;;;;0.50;0.30;;;34.30;44.80;;;;;;5080321;28;20455;-82
2022/06/21 12:57:41;;;;;;;0.50;0.30;;;34.20;43.60;;;;;;5081050;28;20467;-86
2022/06/21 13:00:33;;;;;;;0.50;0.30;;;33.40;42.20;;;;;;5080844;28;20527;-84
2022/06/21 13:03:32;;;;;;;0.50;0.30;;;32.60;43.20;;;;;;5081064;28;20424;-84
2022/06/21 13:06:22;;;;;;;0.50;0.30;;;32.70;46.30;;;;;;5075559;28;20487;-83
2022/06/21 13:09:14;;;;;;;0.50;0.30;;;32.50;43.90;;;;;;5076528;28;20438;-84
2022/06/21 13:11:58;;;;;;;0.50;0.30;;;32.40;44.90;;;;;;5076369;28;20539;-84
2022/06/21 13:14:45;;;;;;;0.50;0.30;;;31.80;45.20;;;;;;5080785;28;20495;-82
2022/06/21 13:17:32;;;;;;;0.50;0.30;;;31.60;47.90;;;;;;5081108;28;20524;-84
2022/06/21 13:20:10;;;;;;;0.50;0.30;;;31.20;47.20;;;;;;5080812;28;20515;-84
2022/06/21 13:22:50;;;;;;;8.00;1.43;;;31.00;47.70;;;;;;5078135;28;20483;-82
2022/06/21 13:25:35;;;;;;;0.70;0.40;;;30.80;48.00;;;;;;5076794;28;20471;-82
2022/06/21 13:28:20;;;;;;;0.50;0.30;;;30.50;47.60;;;;;;5075403;28;20428;-84
2022/06/21 13:30:56;;;;;;;8.90;8.30;;;30.20;47.10;;;;;;5076628;28;20432;-86
2022/06/21 13:33:28;;;;;;;0.50;0.33;;;29.20;48.20;;;;;;5075852;28;20439;-85
2022/06/21 13:36:02;;;;;;;0.50;0.30;;;28.50;49.90;;;;;;5075488;28;20432;-84